Time;durP1;ratioP1;P1;durP2;ratioP2;P2;SDS_P1;SDS_P2;PMS_P1;PMS_P2;Temp;Humidity;BMP_temperature;BMP_pressure;BME280_temperature;BME280_humidity;BME280_pressure;Samples;Min_cycle;Max_cycle;Signal;HPM_P1;HPM_P2
2022/08/14 00:02:08;;;;;;;2.20;1.90;;;;;;;21.14;nan;99391.31;5050638;28;20069;-80
2022/08/14 00:04:35;;;;;;;3.50;2.60;;;;;;;20.81;nan;99396.81;5051955;28;20135;-80
2022/08/14 00:07:05;;;;;;;2.67;2.10;;;;;;;20.70;nan;99400.16;5048362;28;20381;-80
2022/08/14 00:09:31;;;;;;;2.60;2.40;;;;;;;20.63;nan;99394.81;5050970;28;20384;-81
2022/08/14 00:11:56;;;;;;;2.92;2.22;;;;;;;20.65;nan;99387.38;5052229;28;20025;-79
2022/08/14 00:14:25;;;;;;;3.05;2.22;;;;;;;20.68;nan;99380.75;5051551;28;20393;-80
2022/08/14 00:16:51;;;;;;;3.00;2.80;;;;;;;20.75;nan;99381.56;5047667;28;20033;-79
2022/08/14 00:19:17;;;;;;;3.47;2.55;;;;;;;20.78;nan;99381.16;5052867;28;20104;-79
2022/08/14 00:21:43;;;;;;;3.40;2.78;;;;;;;20.69;nan;99383.25;5049505;28;20112;-80
2022/08/14 00:24:09;;;;;;;3.65;2.70;;;;;;;20.71;nan;99386.53;5048793;28;20175;-80
2022/08/14 00:26:34;;;;;;;3.00;2.80;;;;;;;20.73;nan;99392.53;5049571;28;20128;-80
2022/08/14 00:29:00;;;;;;;5.53;3.03;;;;;;;20.75;nan;99386.94;5050314;28;20068;-80
2022/08/14 00:31:26;;;;;;;3.28;2.97;;;;;;;20.74;nan;99378.06;5053634;28;20044;-80
2022/08/14 00:33:52;;;;;;;3.33;3.10;;;;;;;20.74;nan;99370.03;5051325;28;20064;-79
2022/08/14 00:36:18;;;;;;;2.88;2.60;;;;;;;20.74;nan;99375.38;5053024;28;20068;-79
2022/08/14 00:38:44;;;;;;;3.92;2.88;;;;;;;20.78;nan;99381.16;5048492;28;20037;-80
2022/08/14 00:41:11;;;;;;;3.05;2.80;;;;;;;20.81;nan;99378.88;5052569;28;20036;-80
2022/08/14 00:43:37;;;;;;;4.93;2.72;;;;;;;20.84;nan;99380.31;5048248;28;20033;-80
2022/08/14 00:46:05;;;;;;;4.75;2.83;;;;;;;20.81;nan;99375.34;5052859;28;20045;-80
2022/08/14 00:48:31;;;;;;;3.70;2.72;;;;;;;20.73;nan;99368.41;5046176;28;20044;-80
2022/08/14 00:50:57;;;;;;;3.38;2.72;;;;;;;20.75;nan;99369.00;5048194;28;20029;-80
2022/08/14 00:53:24;;;;;;;6.93;3.45;;;;;;;20.77;nan;99364.25;5049060;28;20041;-80
2022/08/14 00:55:54;;;;;;;3.03;2.80;;;;;;;20.83;nan;99349.16;5049115;28;20176;-80
2022/08/14 00:58:32;;;;;;;4.32;2.55;;;;;;;20.83;nan;99352.66;5048059;28;20029;-80
2022/08/14 01:01:05;;;;;;;5.72;2.75;;;;;;;20.71;nan;99351.69;5051938;28;20159;-80
2022/08/14 01:03:38;;;;;;;3.15;2.80;;;;;;;20.64;nan;99345.53;5052523;28;20090;-80
2022/08/14 01:06:09;;;;;;;4.10;2.30;;;;;;;20.58;nan;99338.34;5052421;28;20418;-80
2022/08/14 01:08:37;;;;;;;4.72;2.85;;;;;;;20.58;nan;99338.34;5045032;28;20029;-80
2022/08/14 01:11:04;;;;;;;3.10;2.80;;;;;;;20.53;nan;99340.84;5051484;28;20044;-80
2022/08/14 01:13:36;;;;;;;2.97;2.72;;;;;;;20.42;nan;99333.44;5049246;28;20078;-80
2022/08/14 01:16:06;;;;;;;2.50;2.30;;;;;;;20.31;nan;99331.41;5051320;28;20073;-80
2022/08/14 01:21:30;;;;;;;2.97;2.83;;;;;;;20.25;nan;99324.19;5050879;28;20108;-79
2022/08/14 01:23:56;;;;;;;5.00;2.60;;;;;;;20.24;nan;99319.88;5045743;28;20159;-80
2022/08/14 01:26:24;;;;;;;4.03;2.42;;;;;;;20.20;nan;99321.34;5052528;28;20123;-79
2022/08/14 01:28:54;;;;;;;3.28;2.97;;;;;;;20.24;nan;99314.50;5051422;28;20488;-80
2022/08/14 01:31:22;;;;;;;2.90;2.70;;;;;;;20.32;nan;99317.00;5049257;28;20378;-79
2022/08/14 01:33:52;;;;;;;5.78;2.50;;;;;;;20.36;nan;99323.56;5046704;28;20028;-80
2022/08/14 01:36:19;;;;;;;4.10;2.85;;;;;;;20.44;nan;99320.63;5049064;28;20424;-80
2022/08/14 01:38:47;;;;;;;3.25;2.25;;;;;;;20.53;nan;99324.75;5045399;28;20096;-80
2022/08/14 01:41:22;;;;;;;3.10;2.53;;;;;;;20.51;nan;99325.97;5051216;28;20440;-79
2022/08/14 01:43:59;;;;;;;4.57;2.45;;;;;;;20.35;nan;99317.38;5044251;28;20033;-80
2022/08/14 01:46:27;;;;;;;7.25;2.80;;;;;;;20.39;nan;99328.50;5042596;28;20159;-81
2022/08/14 01:48:55;;;;;;;2.50;2.30;;;;;;;20.38;nan;99332.22;5051879;28;20032;-80
2022/08/14 01:51:23;;;;;;;4.05;2.30;;;;;;;20.34;nan;99325.63;5050003;28;20044;-80
2022/08/14 01:53:53;;;;;;;2.70;2.50;;;;;;;20.21;nan;99325.63;5047144;28;20040;-80
2022/08/14 01:56:19;;;;;;;2.90;2.70;;;;;;;20.13;nan;99323.19;5044923;28;20035;-80
2022/08/14 01:58:48;;;;;;;2.88;2.45;;;;;;;20.11;nan;99331.44;5050856;28;20021;-79
2022/08/14 02:01:19;;;;;;;3.03;2.83;;;;;;;19.87;nan;99326.72;5051441;28;20423;-81
2022/08/14 02:03:46;;;;;;;4.43;3.10;;;;;;;19.73;nan;99328.63;5049932;28;20438;-80
2022/08/14 02:06:12;;;;;;;3.47;2.60;;;;;;;19.34;nan;99325.88;5049686;28;20444;-79
2022/08/14 02:08:39;;;;;;;3.45;2.92;;;;;;;19.25;nan;99319.94;5047504;28;20029;-79
2022/08/14 02:11:21;;;;;;;3.25;2.70;;;;;;;19.27;nan;99322.38;5051199;28;20371;-80
2022/08/14 02:14:07;;;;;;;2.92;2.72;;;;;;;19.29;nan;99314.97;5080281;28;20037;-81
2022/08/14 02:16:39;;;;;;;3.30;3.00;;;;;;;19.34;nan;99326.72;5049918;28;20389;-80
2022/08/14 02:19:26;;;;;;;3.50;2.67;;;;;;;19.43;nan;99320.16;5048958;28;20382;-80
2022/08/14 02:21:55;;;;;;;3.88;3.20;;;;;;;19.49;nan;99313.19;5048614;28;20065;-79
2022/08/14 02:24:22;;;;;;;3.47;3.17;;;;;;;19.53;nan;99303.69;5049126;28;20069;-79
2022/08/14 02:26:50;;;;;;;3.30;3.00;;;;;;;19.53;nan;99307.19;5050903;28;20074;-79
2022/08/14 02:29:21;;;;;;;5.38;3.40;;;;;;;19.46;nan;99310.91;5049459;28;20435;-79
2022/08/14 02:31:50;;;;;;;3.60;3.30;;;;;;;19.30;nan;99298.72;5048099;28;20029;-79
2022/08/14 02:34:30;;;;;;;8.97;3.47;;;;;;;19.30;nan;99308.59;5044551;28;20057;-80
2022/08/14 02:37:06;;;;;;;3.45;3.15;;;;;;;19.20;nan;99304.47;5048645;28;20056;-79
2022/08/14 02:39:34;;;;;;;3.53;3.30;;;;;;;19.08;nan;99310.66;5045027;28;20469;-79
2022/08/14 02:42:00;;;;;;;3.60;3.25;;;;;;;18.99;nan;99299.31;5048298;28;20029;-78
2022/08/14 02:44:25;;;;;;;4.53;3.60;;;;;;;19.01;nan;99296.44;5051769;28;20040;-80
2022/08/14 02:46:56;;;;;;;4.38;3.83;;;;;;;19.15;nan;99301.56;5050416;28;20041;-80
2022/08/14 02:49:26;;;;;;;4.05;3.65;;;;;;;19.28;nan;99291.91;5075242;28;20033;-80
2022/08/14 02:51:53;;;;;;;3.70;3.50;;;;;;;19.32;nan;99293.19;5043521;28;20036;-79
2022/08/14 02:54:19;;;;;;;6.40;3.47;;;;;;;19.23;nan;99289.88;5050336;28;20029;-77
2022/08/14 02:56:44;;;;;;;3.78;3.20;;;;;;;19.23;nan;99288.03;5047354;28;20032;-80
2022/08/14 02:59:12;;;;;;;4.78;3.47;;;;;;;19.32;nan;99287.84;5048466;28;20040;-80
2022/08/14 03:01:39;;;;;;;4.97;3.55;;;;;;;19.41;nan;99292.75;5049970;28;20040;-79
2022/08/14 03:04:09;;;;;;;4.80;3.50;;;;;;;19.43;nan;99305.94;5046487;28;20060;-80
2022/08/14 03:06:37;;;;;;;6.70;4.05;;;;;;;19.38;nan;99303.84;5048787;28;20033;-80
2022/08/14 03:09:04;;;;;;;4.28;3.40;;;;;;;19.44;nan;99302.25;5046405;28;20039;-80
2022/08/14 03:11:30;;;;;;;5.47;4.55;;;;;;;19.38;nan;99308.41;5047460;28;20116;-79
2022/08/14 03:13:55;;;;;;;3.95;3.60;;;;;;;19.30;nan;99303.25;5048140;28;20048;-79
2022/08/14 03:16:24;;;;;;;3.28;2.97;;;;;;;19.19;nan;99294.00;5048235;28;20408;-79
2022/08/14 03:18:53;;;;;;;3.40;3.20;;;;;;;19.00;nan;99282.22;5050307;28;20021;-80
2022/08/14 03:21:21;;;;;;;3.38;3.05;;;;;;;18.97;nan;99279.94;5049341;28;20029;-79
2022/08/14 03:23:49;;;;;;;4.00;3.15;;;;;;;18.96;nan;99286.34;5042449;28;20556;-79
2022/08/14 03:26:18;;;;;;;3.42;3.03;;;;;;;18.87;nan;99284.88;5049025;28;20067;-79
2022/08/14 03:28:49;;;;;;;3.28;2.97;;;;;;;18.84;nan;99285.28;5047070;28;20457;-79
2022/08/14 03:31:20;;;;;;;3.42;3.00;;;;;;;18.90;nan;99278.31;5049677;28;20482;-79
2022/08/14 03:33:47;;;;;;;3.28;2.88;;;;;;;18.92;nan;99277.06;5042915;28;20488;-80
2022/08/14 03:36:15;;;;;;;4.03;3.05;;;;;;;19.01;nan;99288.41;5047282;28;20029;-79
2022/08/14 03:38:45;;;;;;;3.40;3.10;;;;;;;19.03;nan;99289.84;5052611;28;20037;-79
2022/08/14 03:41:15;;;;;;;3.40;3.10;;;;;;;18.99;nan;99288.59;5053498;28;20124;-78
2022/08/14 03:43:45;;;;;;;6.13;3.33;;;;;;;18.94;nan;99296.41;5053478;28;20033;-79
2022/08/14 03:46:12;;;;;;;7.72;3.03;;;;;;;18.83;nan;99290.84;5052871;28;20056;-78
2022/08/14 03:48:41;;;;;;;6.30;2.90;;;;;;;18.77;nan;99287.13;5053724;28;20082;-79
2022/08/14 03:51:09;;;;;;;3.28;3.08;;;;;;;18.73;nan;99283.22;5052402;28;20060;-79
2022/08/14 03:53:36;;;;;;;3.35;3.15;;;;;;;18.66;nan;99277.84;5048453;28;20041;-80
2022/08/14 03:56:04;;;;;;;3.15;2.85;;;;;;;18.64;nan;99279.88;5050993;28;20434;-79
2022/08/14 03:58:31;;;;;;;3.38;3.08;;;;;;;18.66;nan;99271.69;5050320;28;20543;-79
2022/08/14 04:01:01;;;;;;;3.70;3.40;;;;;;;18.72;nan;99278.88;5050869;28;20040;-79
2022/08/14 04:03:26;;;;;;;4.32;3.13;;;;;;;18.71;nan;99274.56;5053051;28;20029;-79
2022/08/14 04:05:53;;;;;;;3.47;3.17;;;;;;;18.71;nan;99271.88;5049185;28;20037;-80
2022/08/14 04:08:19;;;;;;;3.45;3.25;;;;;;;18.79;nan;99271.72;5053407;28;20055;-79
2022/08/14 04:10:46;;;;;;;4.35;3.38;;;;;;;18.84;nan;99269.25;5047311;28;20064;-79
2022/08/14 04:13:15;;;;;;;4.10;3.70;;;;;;;18.94;nan;99275.03;5049403;28;20100;-78
2022/08/14 04:15:41;;;;;;;3.05;2.85;;;;;;;19.03;nan;99279.13;5052078;28;20087;-78
2022/08/14 04:18:07;;;;;;;4.70;3.15;;;;;;;19.02;nan;99282.03;5053547;28;20037;-78
2022/08/14 04:20:38;;;;;;;3.10;2.90;;;;;;;18.82;nan;99287.34;5051060;28;20036;-79
2022/08/14 04:23:05;;;;;;;3.78;3.03;;;;;;;18.72;nan;99286.91;5052542;28;20033;-79
2022/08/14 04:25:35;;;;;;;3.13;2.72;;;;;;;18.71;nan;99285.25;5048656;28;20033;-79
2022/08/14 04:28:05;;;;;;;3.10;2.90;;;;;;;18.75;nan;99278.47;5051401;28;20098;-79
2022/08/14 04:30:36;;;;;;;3.22;3.00;;;;;;;18.80;nan;99284.03;5049072;28;20025;-79
2022/08/14 04:33:01;;;;;;;3.20;3.00;;;;;;;18.81;nan;99285.69;5049983;28;20112;-79
2022/08/14 04:35:27;;;;;;;4.45;2.58;;;;;;;18.87;nan;99282.19;5053502;28;20124;-78
2022/08/14 04:43:36;;;;;;;4.63;3.47;;;;;;;18.53;nan;99282.28;5046004;28;20385;-78
2022/08/14 04:46:04;;;;;;;4.53;3.47;;;;;;;18.51;nan;99278.97;5050873;28;20498;-79
2022/08/14 04:48:29;;;;;;;4.25;3.65;;;;;;;18.50;nan;99280.81;5051096;28;20040;-78
2022/08/14 04:50:58;;;;;;;3.83;3.53;;;;;;;18.41;nan;99276.69;5050221;28;20033;-79
2022/08/14 04:53:26;;;;;;;4.40;3.20;;;;;;;18.41;nan;99272.19;5052270;28;20050;-78
2022/08/14 04:55:52;;;;;;;4.25;3.30;;;;;;;18.51;nan;99268.28;5050487;28;20036;-79
2022/08/14 04:58:25;;;;;;;3.30;3.00;;;;;;;18.56;nan;99260.53;5052808;28;20025;-78
2022/08/14 05:00:52;;;;;;;3.70;3.38;;;;;;;18.65;nan;99265.50;5046389;28;20036;-79
2022/08/14 05:03:26;;;;;;;4.07;3.30;;;;;;;18.66;nan;99261.81;5046114;28;20029;-79
2022/08/14 05:05:54;;;;;;;3.70;3.40;;;;;;;18.66;nan;99264.47;5047861;28;20041;-78
2022/08/14 05:08:21;;;;;;;3.33;3.05;;;;;;;18.65;nan;99257.47;5051276;28;20029;-78
2022/08/14 05:10:51;;;;;;;3.70;3.33;;;;;;;18.52;nan;99270.78;5049596;28;20044;-77
2022/08/14 05:13:22;;;;;;;4.05;3.53;;;;;;;18.32;nan;99276.03;5045763;28;20036;-78
2022/08/14 05:15:48;;;;;;;4.03;3.50;;;;;;;18.29;nan;99265.75;5046007;28;20086;-78
2022/08/14 05:18:16;;;;;;;4.53;3.33;;;;;;;18.36;nan;99265.78;5050543;28;20071;-78
2022/08/14 05:20:44;;;;;;;4.50;3.90;;;;;;;18.24;nan;99267.38;5048156;28;20083;-80
2022/08/14 05:23:19;;;;;;;4.25;3.75;;;;;;;18.22;nan;99275.56;5049495;28;20389;-80
2022/08/14 05:25:46;;;;;;;6.13;4.18;;;;;;;18.25;nan;99283.22;5050755;28;20116;-78
2022/08/14 05:28:18;;;;;;;4.05;3.70;;;;;;;18.23;nan;99277.22;5047393;28;20029;-79
2022/08/14 05:30:46;;;;;;;4.65;4.32;;;;;;;18.14;nan;99273.09;5052114;28;20079;-79
2022/08/14 05:33:15;;;;;;;4.72;3.85;;;;;;;18.18;nan;99274.34;5051573;28;20039;-80
2022/08/14 05:35:41;;;;;;;4.75;3.70;;;;;;;18.25;nan;99280.53;5052267;28;20079;-80
2022/08/14 05:38:09;;;;;;;3.60;3.30;;;;;;;18.29;nan;99284.44;5050636;28;20037;-80
2022/08/14 05:40:35;;;;;;;4.15;3.85;;;;;;;18.29;nan;99281.78;5050629;28;20037;-79
2022/08/14 05:43:01;;;;;;;3.70;3.40;;;;;;;18.34;nan;99279.34;5048741;28;20100;-78
2022/08/14 05:45:27;;;;;;;3.88;3.50;;;;;;;18.45;nan;99274.44;5048589;28;20033;-80
2022/08/14 05:47:53;;;;;;;4.47;3.75;;;;;;;18.51;nan;99270.97;5079282;28;20064;-79
2022/08/14 05:50:19;;;;;;;3.90;3.42;;;;;;;18.55;nan;99258.91;5045294;28;20060;-79
2022/08/14 05:52:47;;;;;;;4.63;3.20;;;;;;;18.63;nan;99250.69;5050977;28;20053;-80
2022/08/14 05:55:12;;;;;;;4.40;3.30;;;;;;;18.74;nan;99252.75;5050244;28;20443;-80
2022/08/14 05:57:55;;;;;;;5.70;3.70;;;;;;;18.85;nan;99249.50;5047310;28;20041;-79
2022/08/14 06:00:23;;;;;;;3.63;3.28;;;;;;;18.93;nan;99257.31;5075412;28;20104;-79
2022/08/14 06:02:49;;;;;;;4.32;3.58;;;;;;;19.04;nan;99259.41;5044786;28;20031;-80
2022/08/14 06:05:14;;;;;;;3.22;3.03;;;;;;;19.15;nan;99261.47;5052313;28;20025;-80
2022/08/14 06:07:40;;;;;;;4.60;3.00;;;;;;;19.28;nan;99249.13;5050746;28;20060;-80
2022/08/14 06:10:08;;;;;;;5.18;3.50;;;;;;;19.40;nan;99247.47;5049833;28;20021;-81
2022/08/14 06:12:33;;;;;;;3.50;3.20;;;;;;;19.49;nan;99246.28;5048331;28;20076;-79
2022/08/14 06:14:59;;;;;;;4.63;3.50;;;;;;;19.59;nan;99249.34;5047956;28;20040;-80
2022/08/14 06:17:25;;;;;;;5.20;3.47;;;;;;;19.68;nan;99256.13;5050794;28;20039;-80
2022/08/14 06:19:51;;;;;;;4.03;3.60;;;;;;;19.76;nan;99247.88;5048845;28;20032;-80
2022/08/14 06:22:17;;;;;;;3.72;3.42;;;;;;;19.84;nan;99242.31;5047068;28;20029;-80
2022/08/14 06:24:43;;;;;;;3.95;3.55;;;;;;;19.91;nan;99240.41;5047271;28;20047;-79
2022/08/14 06:27:08;;;;;;;3.30;3.10;;;;;;;20.02;nan;99242.47;5048705;28;20114;-80
2022/08/14 06:29:36;;;;;;;3.50;3.20;;;;;;;20.12;nan;99220.56;5050354;28;20036;-80
2022/08/14 06:32:03;;;;;;;5.30;3.20;;;;;;;20.21;nan;99219.28;5048120;28;20031;-79
2022/08/14 06:34:28;;;;;;;3.33;3.03;;;;;;;20.31;nan;99218.84;5049906;28;20036;-81
2022/08/14 06:36:57;;;;;;;3.30;3.10;;;;;;;20.40;nan;99217.59;5047832;28;20057;-80
2022/08/14 06:39:24;;;;;;;4.03;2.92;;;;;;;20.53;nan;99222.06;5048676;28;20055;-80
2022/08/14 06:41:49;;;;;;;2.80;2.60;;;;;;;20.65;nan;99214.97;5044036;28;20504;-80
2022/08/14 06:44:15;;;;;;;2.75;2.55;;;;;;;20.73;nan;99225.47;5047251;28;20025;-80
2022/08/14 06:46:41;;;;;;;8.30;3.05;;;;;;;20.81;nan;99242.09;5048957;28;20094;-80
2022/08/14 06:49:06;;;;;;;3.85;2.28;;;;;;;20.93;nan;99252.94;5047800;28;20036;-80
2022/08/14 06:51:34;;;;;;;3.90;2.67;;;;;;;21.06;nan;99260.09;5050091;28;20029;-80
2022/08/14 06:54:00;;;;;;;3.22;2.60;;;;;;;21.12;nan;99264.59;5046684;28;20048;-80
2022/08/14 06:56:25;;;;;;;4.63;2.85;;;;;;;21.21;nan;99257.94;5050807;28;20177;-81
2022/08/14 06:58:51;;;;;;;2.85;2.65;;;;;;;21.29;nan;99265.72;5047150;28;20068;-80
2022/08/14 07:06:44;;;;;;;3.05;2.38;;;;;;;21.60;nan;99251.41;5047633;28;20036;-81
2022/08/14 07:09:10;;;;;;;3.45;2.70;;;;;;;21.70;nan;99261.66;5048257;28;20033;-80
2022/08/14 07:11:36;;;;;;;3.65;3.20;;;;;;;21.81;nan;99277.03;5052296;28;20047;-81
2022/08/14 07:14:02;;;;;;;3.60;3.30;;;;;;;21.86;nan;99272.63;5051483;28;20127;-81
2022/08/14 07:16:28;;;;;;;4.75;4.35;;;;;;;21.90;nan;99270.34;5053096;28;20029;-80
2022/08/14 07:18:53;;;;;;;4.60;4.15;;;;;;;21.97;nan;99289.94;5050571;28;20029;-81
2022/08/14 07:21:19;;;;;;;4.57;4.22;;;;;;;22.07;nan;99284.84;5051933;28;20033;-80
2022/08/14 07:23:44;;;;;;;5.55;4.78;;;;;;;22.13;nan;99273.22;5050872;28;20025;-79
2022/08/14 07:26:12;;;;;;;6.43;4.63;;;;;;;22.20;nan;99268.59;5054672;28;20025;-80
2022/08/14 07:28:39;;;;;;;5.25;4.78;;;;;;;22.29;nan;99267.22;5052259;28;20513;-80
2022/08/14 07:31:07;;;;;;;6.20;5.75;;;;;;;22.32;nan;99271.34;5053745;28;20485;-81
2022/08/14 07:33:40;;;;;;;6.70;6.00;;;;;;;22.29;nan;99271.78;5046828;28;20033;-79
2022/08/14 07:36:08;;;;;;;8.05;6.55;;;;;;;22.26;nan;99270.38;5037175;28;20504;-80
2022/08/14 07:38:35;;;;;;;8.38;6.63;;;;;;;22.19;nan;99277.69;5051047;28;20496;-80
2022/08/14 07:41:02;;;;;;;7.07;6.43;;;;;;;22.11;nan;99296.78;5048258;28;20032;-80
2022/08/14 07:43:28;;;;;;;5.55;5.05;;;;;;;22.16;nan;99304.19;5053698;28;20541;-80
2022/08/14 07:45:54;;;;;;;6.00;5.50;;;;;;;22.26;nan;99316.06;5052668;28;20029;-81
2022/08/14 07:48:20;;;;;;;6.25;5.63;;;;;;;22.34;nan;99307.69;5053331;28;20025;-80
2022/08/14 07:50:46;;;;;;;7.30;5.88;;;;;;;22.40;nan;99306.78;5052989;28;20025;-80
2022/08/14 07:53:13;;;;;;;7.10;6.43;;;;;;;22.38;nan;99306.19;5046753;28;20040;-79
2022/08/14 07:55:41;;;;;;;9.23;8.32;;;;;;;22.32;nan;99307.13;5049481;28;20117;-80
2022/08/14 07:58:07;;;;;;;9.80;8.50;;;;;;;22.31;nan;99308.16;5052016;28;20048;-80
2022/08/14 08:00:32;;;;;;;9.32;8.27;;;;;;;22.33;nan;99314.09;5051659;28;20021;-80
2022/08/14 08:02:58;;;;;;;10.05;9.10;;;;;;;22.42;nan;99310.09;5049754;28;20108;-81
2022/08/14 08:05:24;;;;;;;8.45;7.70;;;;;;;22.48;nan;99297.63;5052432;28;20024;-79
2022/08/14 08:07:51;;;;;;;8.23;7.43;;;;;;;22.63;nan;99291.81;5050659;28;20026;-80
2022/08/14 08:10:30;;;;;;;10.43;8.23;;;;;;;22.74;nan;99291.91;5044747;28;20062;-80
2022/08/14 08:13:20;;;;;;;8.63;7.72;;;;;;;22.86;nan;99291.94;5048763;28;20515;-81
2022/08/14 08:15:55;;;;;;;8.30;7.50;;;;;;;22.99;nan;99296.34;5050719;28;20492;-81
2022/08/14 08:18:22;;;;;;;10.30;7.63;;;;;;;23.09;nan;99300.09;5043672;28;20033;-81
2022/08/14 08:20:51;;;;;;;9.63;8.38;;;;;;;23.17;nan;99298.97;5048844;28;20033;-80
2022/08/14 08:23:20;;;;;;;9.77;8.60;;;;;;;23.22;nan;99294.53;5042776;28;20043;-80
2022/08/14 08:25:49;;;;;;;9.10;7.70;;;;;;;23.25;nan;99294.09;5048162;28;20519;-79
2022/08/14 08:28:19;;;;;;;7.82;7.22;;;;;;;23.35;nan;99298.06;5051649;28;20060;-80
2022/08/14 08:30:55;;;;;;;9.10;7.45;;;;;;;23.48;nan;99287.13;5051030;28;20120;-80
2022/08/14 08:33:23;;;;;;;9.02;8.15;;;;;;;23.56;nan;99284.09;5046693;28;20498;-79
2022/08/14 08:35:49;;;;;;;8.43;7.63;;;;;;;23.60;nan;99279.88;5050180;28;20481;-80
2022/08/14 08:38:18;;;;;;;7.95;7.18;;;;;;;23.67;nan;99281.41;5052752;28;20044;-80
2022/08/14 08:40:48;;;;;;;8.00;7.40;;;;;;;23.74;nan;99283.94;5048850;28;20074;-79
2022/08/14 08:43:23;;;;;;;8.00;7.35;;;;;;;23.79;nan;99265.25;5053230;28;20032;-79
2022/08/14 08:45:55;;;;;;;6.65;6.15;;;;;;;23.85;nan;99267.00;5048713;28;20033;-80
2022/08/14 08:48:22;;;;;;;6.85;6.32;;;;;;;23.91;nan;99266.06;5051356;28;20028;-80
2022/08/14 08:50:48;;;;;;;7.32;6.72;;;;;;;23.97;nan;99259.72;5052157;28;20031;-78
2022/08/14 08:53:14;;;;;;;6.40;5.82;;;;;;;24.01;nan;99255.47;5049271;28;20116;-79
2022/08/14 08:55:42;;;;;;;7.38;6.75;;;;;;;24.01;nan;99250.09;5050013;28;20086;-79
2022/08/14 08:58:10;;;;;;;6.80;6.07;;;;;;;24.01;nan;99239.31;5048670;28;20489;-79
2022/08/14 09:00:38;;;;;;;6.72;6.00;;;;;;;24.00;nan;99229.59;5050643;28;20120;-79
2022/08/14 09:03:05;;;;;;;6.20;5.75;;;;;;;24.00;nan;99232.28;5049532;28;20567;-80
2022/08/14 09:05:33;;;;;;;7.53;5.75;;;;;;;24.02;nan;99240.97;5049257;28;20086;-80
2022/08/14 09:08:17;;;;;;;5.82;5.25;;;;;;;24.07;nan;99248.31;5051185;28;20037;-80
2022/08/14 09:10:43;;;;;;;6.28;5.70;;;;;;;24.09;nan;99246.22;5047018;28;20124;-81
2022/08/14 09:13:11;;;;;;;5.43;5.03;;;;;;;24.13;nan;99241.16;5050925;28;20029;-80
2022/08/14 09:15:42;;;;;;;6.10;5.50;;;;;;;24.15;nan;99239.06;5050832;28;20072;-80
2022/08/14 09:18:09;;;;;;;6.18;5.47;;;;;;;24.18;nan;99238.56;5052825;28;20047;-80
2022/08/14 09:20:37;;;;;;;6.25;5.30;;;;;;;24.24;nan;99243.03;5050539;28;20025;-82
2022/08/14 09:23:03;;;;;;;5.97;5.38;;;;;;;24.28;nan;99230.72;5054270;28;20477;-81
2022/08/14 09:25:29;;;;;;;7.20;6.50;;;;;;;24.30;nan;99226.72;5046229;28;20060;-80
2022/08/14 09:27:54;;;;;;;7.03;5.90;;;;;;;24.33;nan;99222.72;5050440;28;20064;-79
2022/08/14 09:30:20;;;;;;;6.47;5.30;;;;;;;24.36;nan;99230.34;5049035;28;20029;-81
2022/08/14 09:33:03;;;;;;;5.88;5.38;;;;;;;24.39;nan;99232.53;5049595;28;20041;-80
2022/08/14 09:35:31;;;;;;;5.80;5.30;;;;;;;24.42;nan;99224.00;5044583;28;20033;-79
2022/08/14 09:38:23;;;;;;;5.95;5.10;;;;;;;24.46;nan;99230.53;5051762;28;20515;-78
2022/08/14 09:40:48;;;;;;;4.78;4.45;;;;;;;24.47;nan;99221.38;5045704;28;20541;-80
2022/08/14 09:43:42;;;;;;;6.85;5.68;;;;;;;24.48;nan;99223.84;5051426;28;20035;-80
2022/08/14 09:46:07;;;;;;;6.90;5.35;;;;;;;24.51;nan;99227.09;5047480;28;20068;-81
2022/08/14 09:48:34;;;;;;;4.90;4.45;;;;;;;24.51;nan;99216.31;5050132;28;20114;-80
2022/08/14 09:51:00;;;;;;;5.00;4.60;;;;;;;24.53;nan;99225.00;5050514;28;20031;-79
2022/08/14 09:53:37;;;;;;;4.90;4.50;;;;;;;24.55;nan;99226.41;5049812;28;20370;-80
2022/08/14 09:56:03;;;;;;;5.38;4.88;;;;;;;24.57;nan;99220.75;5046026;28;20037;-78
2022/08/14 09:58:42;;;;;;;5.15;4.75;;;;;;;24.58;nan;99223.22;5051981;28;20418;-79
2022/08/14 10:01:09;;;;;;;4.75;4.30;;;;;;;24.61;nan;99217.34;5045370;28;20401;-79
2022/08/14 10:03:36;;;;;;;8.65;5.18;;;;;;;24.67;nan;99216.38;5050858;28;20025;-79
2022/08/14 10:06:10;;;;;;;4.70;4.30;;;;;;;24.73;nan;99215.41;5043060;28;20041;-78
2022/08/14 10:09:05;;;;;;;7.72;4.90;;;;;;;24.77;nan;99232.75;5050601;28;20100;-79
2022/08/14 10:11:36;;;;;;;4.35;4.05;;;;;;;24.81;nan;99225.78;5045515;28;20405;-79
2022/08/14 10:14:15;;;;;;;5.20;4.70;;;;;;;24.86;nan;99225.06;5048505;28;20451;-79
2022/08/14 10:16:53;;;;;;;5.00;4.50;;;;;;;24.90;nan;99215.47;5047673;28;20484;-80
2022/08/14 10:19:20;;;;;;;5.50;5.00;;;;;;;24.93;nan;99214.97;5050231;28;20394;-82
2022/08/14 10:22:02;;;;;;;5.70;5.18;;;;;;;24.92;nan;99212.53;5050643;28;20350;-82
2022/08/14 10:24:39;;;;;;;7.28;6.63;;;;;;;24.86;nan;99230.47;5047978;28;20041;-81
2022/08/14 10:27:17;;;;;;;6.68;6.05;;;;;;;24.76;nan;99231.09;5047426;28;20045;-81
2022/08/14 10:29:48;;;;;;;5.93;5.32;;;;;;;24.65;nan;99226.59;5047863;28;20098;-82
2022/08/14 10:32:14;;;;;;;6.15;5.45;;;;;;;24.63;nan;99226.00;5048122;28;20385;-82
2022/08/14 10:34:40;;;;;;;8.38;5.95;;;;;;;24.58;nan;99217.81;5050423;28;20028;-81
2022/08/14 10:37:15;;;;;;;6.28;5.07;;;;;;;24.59;nan;99214.06;5050558;28;20450;-80
2022/08/14 10:39:44;;;;;;;5.95;5.35;;;;;;;24.58;nan;99207.03;5050240;28;20385;-81
2022/08/14 10:42:12;;;;;;;5.15;4.78;;;;;;;24.57;nan;99216.19;5044990;28;20048;-81
2022/08/14 10:44:40;;;;;;;5.20;4.80;;;;;;;24.53;nan;99206.94;5049806;28;20465;-80
2022/08/14 10:47:09;;;;;;;5.13;4.55;;;;;;;24.51;nan;99195.56;5079871;28;20084;-81
2022/08/14 10:49:48;;;;;;;7.10;5.05;;;;;;;24.50;nan;99196.66;5046510;28;20073;-81
2022/08/14 10:52:33;;;;;;;7.00;4.53;;;;;;;24.50;nan;99193.94;5045402;28;20036;-81
2022/08/14 10:55:18;;;;;;;6.18;4.63;;;;;;;24.50;nan;99183.16;5048362;28;20063;-81
2022/08/14 10:57:52;;;;;;;6.22;4.40;;;;;;;24.50;nan;99191.25;5047220;28;20077;-81
2022/08/14 11:00:28;;;;;;;5.30;4.00;;;;;;;24.54;nan;99195.09;5047528;28;20389;-81
2022/08/14 11:03:01;;;;;;;8.43;4.72;;;;;;;24.55;nan;99196.72;5045501;28;20156;-81
2022/08/14 11:05:50;;;;;;;6.50;4.18;;;;;;;24.57;nan;99205.38;5047824;28;20097;-80
2022/08/14 11:08:28;;;;;;;6.63;4.68;;;;;;;24.62;nan;99210.91;5050309;28;20397;-80
2022/08/14 11:10:57;;;;;;;5.05;4.18;;;;;;;24.68;nan;99212.59;5044671;28;20401;-80
2022/08/14 11:13:28;;;;;;;7.03;4.40;;;;;;;24.74;nan;99206.22;5048610;28;20385;-80
2022/08/14 11:15:59;;;;;;;4.28;3.92;;;;;;;24.76;nan;99208.69;5046068;28;20035;-81
2022/08/14 11:18:26;;;;;;;6.53;4.97;;;;;;;24.78;nan;99206.59;5047523;28;20029;-81
2022/08/14 11:20:54;;;;;;;17.38;4.68;;;;;;;24.82;nan;99211.25;5050911;28;20385;-80
2022/08/14 11:23:29;;;;;;;5.65;4.05;;;;;;;24.85;nan;99208.06;5045750;28;20138;-80
2022/08/14 11:25:57;;;;;;;6.65;3.85;;;;;;;24.82;nan;99197.75;5046293;28;20052;-80
2022/08/14 11:28:25;;;;;;;4.70;3.78;;;;;;;24.82;nan;99192.34;5042902;28;20385;-79
2022/08/14 11:30:52;;;;;;;4.15;3.88;;;;;;;24.85;nan;99191.88;5050401;28;20029;-79
2022/08/14 11:33:23;;;;;;;5.22;3.58;;;;;;;24.90;nan;99198.44;5048801;28;20025;-81
2022/08/14 11:35:49;;;;;;;5.85;3.75;;;;;;;24.92;nan;99197.13;5044628;28;20041;-81
2022/08/14 11:38:16;;;;;;;3.72;3.47;;;;;;;24.85;nan;99202.69;5046823;28;20059;-79
2022/08/14 11:40:42;;;;;;;5.13;3.92;;;;;;;24.81;nan;99195.28;5048608;28;20029;-82
2022/08/14 11:43:08;;;;;;;3.83;3.53;;;;;;;24.83;nan;99204.78;5046607;28;20499;-81
2022/08/14 11:45:38;;;;;;;6.45;3.55;;;;;;;24.90;nan;99198.44;5047969;28;20040;-81
2022/08/14 11:48:24;;;;;;;;;;;;;;;25.00;nan;99201.31;5044719;28;20384;-82
2022/08/14 11:50:54;;;;;;;5.25;3.40;;;;;;;25.09;nan;99197.16;5046902;28;20337;-81
2022/08/14 11:53:29;;;;;;;3.63;3.30;;;;;;;25.21;nan;99195.19;5045476;28;20045;-79
2022/08/14 11:56:03;;;;;;;3.75;3.17;;;;;;;25.31;nan;99198.03;5044112;28;20433;-79
2022/08/14 11:58:35;;;;;;;3.95;3.63;;;;;;;25.41;nan;99190.09;5052690;28;20037;-80
2022/08/14 12:01:05;;;;;;;6.30;4.00;;;;;;;25.52;nan;99188.34;5052805;28;20087;-80
2022/08/14 12:03:38;;;;;;;5.00;3.72;;;;;;;25.57;nan;99189.28;5054045;28;20334;-80
2022/08/14 12:06:15;;;;;;;4.22;3.90;;;;;;;25.66;nan;99182.38;5082315;28;20094;-81
2022/08/14 12:08:41;;;;;;;5.22;3.90;;;;;;;25.77;nan;99171.72;5052425;28;20033;-81
2022/08/14 12:11:14;;;;;;;6.20;3.70;;;;;;;25.78;nan;99174.16;5053107;28;20041;-80
2022/08/14 12:13:41;;;;;;;5.90;3.65;;;;;;;25.76;nan;99175.47;5050563;28;20037;-81
2022/08/14 12:16:10;;;;;;;3.88;3.50;;;;;;;25.79;nan;99186.63;5051429;28;20378;-80